Time;durP1;ratioP1;P1;durP2;ratioP2;P2;SDS_P1;SDS_P2;PMS_P1;PMS_P2;Temp;Humidity;BMP_temperature;BMP_pressure;BME280_temperature;BME280_humidity;BME280_pressure;Samples;Min_cycle;Max_cycle;Signal;HPM_P1;HPM_P2
2022/06/02 00:00:22;;;;;;;20.08;16.33;;;;;;;-145.45;100.00;62759.84;5347208;27;20051;-84
2022/06/02 00:03:21;;;;;;;17.38;14.63;;;;;;;-145.45;100.00;62759.84;5347558;27;20548;-84
2022/06/02 00:06:11;;;;;;;17.42;15.18;;;;;;;-145.45;100.00;62759.84;5348234;27;20027;-85
2022/06/02 00:09:01;;;;;;;16.25;14.48;;;;;;;-145.45;100.00;62759.84;5352612;27;20091;-85
2022/06/02 00:11:42;;;;;;;18.33;16.38;;;;;;;-145.45;100.00;62759.84;5350499;27;20031;-85
2022/06/02 00:14:45;;;;;;;16.70;14.25;;;;;;;-145.45;100.00;62759.84;5348459;27;20426;-85
2022/06/02 00:17:19;;;;;;;19.58;16.05;;;;;;;-145.45;100.00;62759.84;5348227;27;20024;-85
2022/06/02 00:20:20;;;;;;;19.13;15.20;;;;;;;-145.45;100.00;62759.84;5347365;27;20396;-84
2022/06/02 00:22:59;;;;;;;18.08;15.38;;;;;;;-145.45;100.00;62759.84;5326239;27;20043;-85
2022/06/02 00:25:43;;;;;;;18.33;15.27;;;;;;;-145.45;100.00;62759.84;5323890;28;20364;-85
2022/06/02 00:28:29;;;;;;;18.30;14.75;;;;;;;-145.45;100.00;62759.84;5323760;28;20016;-85
2022/06/02 00:31:12;;;;;;;24.15;16.45;;;;;;;-145.45;100.00;62759.84;5340116;27;20112;-85
2022/06/02 00:33:59;;;;;;;19.98;17.85;;;;;;;-145.45;100.00;62759.84;5325391;27;20028;-85
2022/06/02 00:36:38;;;;;;;19.60;16.52;;;;;;;-145.45;100.00;62759.84;5325746;28;20036;-84
2022/06/02 00:39:09;;;;;;;18.40;14.63;;;;;;;-145.45;100.00;62759.84;5323249;27;20020;-84
2022/06/02 00:42:03;;;;;;;22.60;18.75;;;;;;;-145.45;100.00;62759.84;5324125;28;20353;-85
2022/06/02 00:44:57;;;;;;;23.35;18.77;;;;;;;-145.45;100.00;62759.84;5325059;27;20109;-85
2022/06/02 00:47:54;;;;;;;16.77;15.02;;;;;;;-145.45;100.00;62759.84;5323186;28;20036;-84
2022/06/02 00:50:40;;;;;;;23.45;19.00;;;;;;;-145.45;100.00;62759.84;5323904;28;20476;-85
2022/06/02 00:53:24;;;;;;;18.48;15.82;;;;;;;-145.45;100.00;62759.84;5324100;28;20016;-85
2022/06/02 00:59:33;;;;;;;24.20;17.60;;;;;;;-145.45;100.00;62759.84;5326162;28;20338;-84
2022/06/02 01:02:05;;;;;;;24.10;19.25;;;;;;;-145.45;100.00;62759.84;5326838;28;20099;-84
2022/06/02 01:04:42;;;;;;;20.02;16.13;;;;;;;-145.45;100.00;62759.84;5325995;28;20115;-85
2022/06/02 01:07:20;;;;;;;;;;;;;;;-145.45;100.00;62759.84;5330653;28;20451;-85
2022/06/02 01:10:06;;;;;;;21.90;16.20;;;;;;;-145.45;100.00;62759.84;5330915;27;19915;-85
2022/06/02 01:12:38;;;;;;;23.85;18.02;;;;;;;-145.45;100.00;62759.84;5345701;27;20036;-85
2022/06/02 01:15:38;;;;;;;19.30;17.15;;;;;;;-145.45;100.00;62759.84;5345108;27;20051;-85
2022/06/02 01:18:27;;;;;;;18.25;15.05;;;;;;;-145.45;100.00;62759.84;5331206;28;20041;-85
2022/06/02 01:21:01;;;;;;;21.25;17.45;;;;;;;-145.45;100.00;62759.84;5337410;27;20044;-85
2022/06/02 01:23:47;;;;;;;24.45;18.65;;;;;;;-145.45;100.00;62759.84;5350773;27;20471;-85
2022/06/02 01:26:51;;;;;;;24.50;17.15;;;;;;;-145.45;100.00;62759.84;5329655;28;20384;-85
2022/06/02 01:29:31;;;;;;;20.35;17.17;;;;;;;-145.45;100.00;62759.84;5309749;28;20353;-85
2022/06/02 01:32:14;;;;;;;22.88;17.48;;;;;;;-145.45;100.00;62759.84;5339358;27;20023;-85
2022/06/02 01:34:51;;;;;;;28.08;21.48;;;;;;;-145.45;100.00;62759.84;5331073;27;20031;-86
2022/06/02 01:37:37;;;;;;;25.45;19.85;;;;;;;-145.45;100.00;62759.84;5330797;27;20046;-85
2022/06/02 01:40:18;;;;;;;22.38;18.10;;;;;;;-145.45;100.00;62759.84;5330150;27;20489;-85
2022/06/02 01:43:08;;;;;;;25.77;18.25;;;;;;;-145.45;100.00;62759.84;5349345;27;20554;-85
2022/06/02 01:45:58;;;;;;;20.10;15.75;;;;;;;-145.45;100.00;62759.84;5329353;27;20055;-85
2022/06/02 01:48:51;;;;;;;31.83;23.52;;;;;;;-145.45;100.00;62759.84;5330265;27;20073;-84
2022/06/02 01:51:43;;;;;;;33.25;21.58;;;;;;;-145.45;100.00;62759.84;5349605;27;20073;-85
2022/06/02 01:54:42;;;;;;;29.13;21.42;;;;;;;-145.45;100.00;62759.84;5330495;27;20052;-85
2022/06/02 01:57:37;;;;;;;31.85;22.65;;;;;;;-145.45;100.00;62759.84;5348999;27;20106;-83
2022/06/02 02:00:13;;;;;;;36.08;24.70;;;;;;;-145.45;100.00;62759.84;5348226;27;20050;-82
2022/06/02 02:02:57;;;;;;;31.02;22.67;;;;;;;-145.45;100.00;62759.84;5330147;27;20027;-83
2022/06/02 02:05:50;;;;;;;38.17;26.23;;;;;;;-145.45;100.00;62759.84;5329751;27;20683;-84
2022/06/02 02:08:58;;;;;;;44.65;29.90;;;;;;;-145.45;100.00;62759.84;5349234;27;20031;-85
2022/06/02 02:11:47;;;;;;;47.72;30.65;;;;;;;-145.45;100.00;62759.84;5330080;27;20047;-85
2022/06/02 02:14:47;;;;;;;51.10;32.90;;;;;;;-145.45;100.00;62759.84;5329400;27;20077;-85
2022/06/02 02:17:25;;;;;;;49.97;33.40;;;;;;;-145.45;100.00;62759.84;5346796;27;20027;-84
2022/06/02 02:20:17;;;;;;;57.97;36.90;;;;;;;-145.45;100.00;62759.84;5348825;27;20035;-84
2022/06/02 02:23:19;;;;;;;61.45;35.13;;;;;;;-145.45;100.00;62759.84;5348298;27;20059;-84
2022/06/02 02:25:58;;;;;;;51.80;34.75;;;;;;;-145.45;100.00;62759.84;5335751;27;20511;-84
2022/06/02 02:28:42;;;;;;;43.92;28.45;;;;;;;-145.45;100.00;62759.84;5347702;27;20357;-85
2022/06/02 02:31:46;;;;;;;48.60;29.77;;;;;;;-145.45;100.00;62759.84;5329643;27;20114;-85
2022/06/02 02:34:32;;;;;;;53.97;34.42;;;;;;;-145.45;100.00;62759.84;5322326;27;20387;-84
2022/06/02 02:37:37;;;;;;;63.08;38.00;;;;;;;-145.45;100.00;62759.84;5329256;27;20517;-84
2022/06/02 02:40:16;;;;;;;58.10;38.22;;;;;;;-145.45;100.00;62759.84;5329388;27;20078;-84
2022/06/02 02:43:06;;;;;;;46.15;30.80;;;;;;;-145.45;100.00;62759.84;5348195;27;20012;-85
2022/06/02 02:45:55;;;;;;;50.58;33.00;;;;;;;-145.45;100.00;62759.84;5347408;27;20024;-85
2022/06/02 02:48:43;;;;;;;52.58;33.30;;;;;;;-145.45;100.00;62759.84;5330120;27;20031;-84
2022/06/02 02:51:39;;;;;;;58.22;35.30;;;;;;;-145.45;100.00;62759.84;5349057;27;20027;-84
2022/06/02 02:54:21;;;;;;;54.13;34.42;;;;;;;-145.45;100.00;62759.84;5349919;27;20034;-85
2022/06/02 02:56:59;;;;;;;48.83;31.88;;;;;;;-145.45;100.00;62759.84;5349384;27;20023;-85
2022/06/02 02:59:31;;;;;;;47.88;29.17;;;;;;;-145.45;100.00;62759.84;5348723;27;20433;-84
2022/06/02 03:02:27;;;;;;;55.70;35.83;;;;;;;-145.45;100.00;62759.84;5330571;27;20066;-84
2022/06/02 03:05:05;;;;;;;44.50;29.48;;;;;;;-145.45;100.00;62759.84;5329434;27;20047;-84
2022/06/02 03:07:37;;;;;;;53.85;32.50;;;;;;;-145.45;100.00;62759.84;5348198;27;20031;-84
2022/06/02 03:10:30;;;;;;;42.10;28.10;;;;;;;-145.45;100.00;62759.84;5329771;27;20142;-84
2022/06/02 03:13:26;;;;;;;62.92;39.20;;;;;;;-145.45;100.00;62759.84;5348426;27;20042;-85
2022/06/02 03:16:08;;;;;;;69.25;43.17;;;;;;;-145.45;100.00;62759.84;5328519;27;20074;-85
2022/06/02 03:19:05;;;;;;;58.13;37.42;;;;;;;-145.45;100.00;62759.84;5328605;27;20028;-85
2022/06/02 03:21:51;;;;;;;50.00;32.05;;;;;;;-145.45;100.00;62759.84;5347621;27;20083;-85
2022/06/02 03:24:52;;;;;;;57.80;32.35;;;;;;;-145.45;100.00;62759.84;5347738;27;20086;-85
2022/06/02 03:27:38;;;;;;;57.00;34.90;;;;;;;-145.45;100.00;62759.84;5327758;27;20035;-85
2022/06/02 03:30:24;;;;;;;46.90;30.23;;;;;;;-145.45;100.00;62759.84;5327471;27;20467;-85
2022/06/02 03:33:06;;;;;;;48.80;31.27;;;;;;;-145.45;100.00;62759.84;5355430;27;20058;-84
2022/06/02 03:36:09;;;;;;;54.92;34.65;;;;;;;-145.45;100.00;62759.84;5353858;27;20016;-85
2022/06/02 03:39:38;;;;;;;66.22;40.40;;;;;;;-145.45;100.00;62759.84;5353818;27;20032;-85
2022/06/02 03:42:23;;;;;;;79.22;45.55;;;;;;;-145.45;100.00;62759.84;5263929;28;20033;-85
2022/06/02 03:45:03;;;;;;;69.22;39.53;;;;;;;-145.45;100.00;62759.84;5260758;28;20121;-85
2022/06/02 03:48:08;;;;;;;77.68;45.92;;;;;;;-145.45;100.00;62759.84;5331721;27;20035;-85
2022/06/02 03:51:01;;;;;;;85.00;48.85;;;;;;;-145.45;100.00;62759.84;5348328;27;20036;-85
2022/06/02 03:54:00;;;;;;;76.05;44.92;;;;;;;-145.45;100.00;62759.84;5331273;27;20027;-85
2022/06/02 03:57:10;;;;;;;74.47;42.53;;;;;;;-145.45;100.00;62759.84;5330721;27;20035;-85
2022/06/02 04:00:11;;;;;;;73.50;43.08;;;;;;;-145.45;100.00;62759.84;5346317;27;20027;-85
2022/06/02 04:02:54;;;;;;;65.53;33.53;;;;;;;-145.45;100.00;62759.84;5328030;27;20028;-85
2022/06/02 04:05:37;;;;;;;71.82;39.72;;;;;;;-145.45;100.00;62759.84;5327710;27;20031;-84
2022/06/02 04:08:35;;;;;;;120.38;40.45;;;;;;;-145.45;100.00;62759.84;5327904;27;20099;-85
2022/06/02 04:13:37;;;;;;;59.17;36.03;;;;;;;-145.45;100.00;62759.84;5328079;27;20430;-85
2022/06/02 04:14:53;;;;;;;54.13;33.72;;;;;;;-145.45;100.00;62759.84;5345360;27;20047;-85
2022/06/02 04:17:32;;;;;;;52.40;32.78;;;;;;;-145.45;100.00;62759.84;5331908;27;20048;-85
2022/06/02 04:20:34;;;;;;;50.17;32.20;;;;;;;-145.45;100.00;62759.84;5327206;27;20040;-85
2022/06/02 04:23:33;;;;;;;50.05;30.38;;;;;;;-145.45;100.00;62759.84;5327699;27;20513;-85
2022/06/02 04:26:19;;;;;;;74.72;44.47;;;;;;;-145.45;100.00;62759.84;5327028;27;20418;-86
2022/06/02 04:29:22;;;;;;;87.05;51.55;;;;;;;-145.45;100.00;62759.84;5326788;27;20078;-85
2022/06/02 04:32:25;;;;;;;98.68;55.45;;;;;;;-145.45;100.00;62759.84;5327646;27;20024;-85
2022/06/02 04:35:18;;;;;;;106.72;56.20;;;;;;;-145.45;100.00;62759.84;5331154;27;20023;-85
2022/06/02 04:38:14;;;;;;;113.60;59.88;;;;;;;-145.45;100.00;62759.84;5330469;27;20028;-85
2022/06/02 04:40:56;;;;;;;112.18;57.85;;;;;;;-145.45;100.00;62759.84;5334244;27;20119;-85
2022/06/02 04:43:49;;;;;;;114.72;62.05;;;;;;;-145.45;100.00;62759.84;5358027;27;20050;-85
2022/06/02 04:46:50;;;;;;;123.80;67.93;;;;;;;-145.45;100.00;62759.84;5353057;27;20028;-85
2022/06/02 04:49:33;;;;;;;120.93;61.50;;;;;;;-145.45;100.00;62759.84;5263475;27;20028;-85
2022/06/02 04:52:14;;;;;;;126.45;66.28;;;;;;;-145.45;100.00;62759.84;5341120;27;20019;-84
2022/06/02 04:55:13;;;;;;;126.45;63.20;;;;;;;-145.45;100.00;62759.84;5337795;27;20081;-85
2022/06/02 04:57:53;;;;;;;104.95;52.28;;;;;;;-145.45;100.00;62759.84;5336780;27;20019;-84
2022/06/02 05:00:45;;;;;;;131.50;65.38;;;;;;;-145.45;100.00;62759.84;5335507;27;20404;-85
2022/06/02 05:03:31;;;;;;;99.70;51.55;;;;;;;-145.45;100.00;62759.84;5334619;27;20020;-84
2022/06/02 05:06:20;;;;;;;154.30;65.30;;;;;;;-145.45;100.00;62759.84;5335746;27;20035;-87
2022/06/02 05:09:35;;;;;;;130.30;63.53;;;;;;;-145.45;100.00;62759.84;5336115;27;20046;-85
2022/06/02 05:12:21;;;;;;;122.13;61.50;;;;;;;-145.45;100.00;62759.84;5351606;27;20111;-85
2022/06/02 05:15:21;;;;;;;148.95;65.50;;;;;;;-145.45;100.00;62759.84;5337416;27;20003;-84
2022/06/02 05:18:26;;;;;;;141.35;66.43;;;;;;;-145.45;100.00;62759.84;5368155;27;20027;-85
2022/06/02 05:21:39;;;;;;;138.10;67.03;;;;;;;-145.45;100.00;62759.84;5361861;27;20036;-85
2022/06/02 05:24:22;;;;;;;133.02;65.43;;;;;;;-145.45;100.00;62759.84;5370682;27;20042;-86
2022/06/02 05:27:05;;;;;;;112.50;61.47;;;;;;;-145.45;100.00;62759.84;5331246;27;20170;-86
2022/06/02 05:30:04;;;;;;;107.43;61.65;;;;;;;-145.45;100.00;62759.84;5328210;27;20106;-86
2022/06/02 05:33:04;;;;;;;116.60;64.97;;;;;;;-145.45;100.00;62759.84;5327322;27;20058;-86
2022/06/02 05:35:47;;;;;;;109.80;59.40;;;;;;;-145.45;100.00;62759.84;5347100;27;20024;-86
2022/06/02 05:38:41;;;;;;;107.97;63.28;;;;;;;-145.45;100.00;62759.84;5326772;27;20039;-86
2022/06/02 05:41:36;;;;;;;101.85;59.50;;;;;;;-145.45;100.00;62759.84;5327726;27;20059;-86
2022/06/02 05:44:39;;;;;;;95.75;57.22;;;;;;;-145.45;100.00;62759.84;5326220;27;20031;-86
2022/06/02 05:47:41;;;;;;;89.68;54.45;;;;;;;-145.45;100.00;62759.84;5326897;27;20089;-86
2022/06/02 05:50:40;;;;;;;78.38;49.03;;;;;;;-145.45;100.00;62759.84;5327073;27;20097;-84
2022/06/02 05:53:49;;;;;;;65.30;47.47;;;;;;;-145.45;100.00;62759.84;5330455;27;20019;-84
2022/06/02 05:56:23;;;;;;;69.18;48.58;;;;;;;-145.45;100.00;62759.84;5330229;27;20443;-85
2022/06/02 05:59:06;;;;;;;61.13;46.47;;;;;;;-145.45;100.00;62759.84;5330364;27;20845;-84
2022/06/02 06:01:56;;;;;;;62.53;45.10;;;;;;;-145.45;100.00;62759.84;5348759;27;20020;-84
2022/06/02 06:05:01;;;;;;;43.33;38.17;;;;;;;-145.45;100.00;62759.84;5329514;27;20020;-85
2022/06/02 06:07:58;;;;;;;34.65;30.90;;;;;;;-145.45;100.00;62759.84;5329733;27;20051;-86
2022/06/02 06:10:34;;;;;;;37.90;33.80;;;;;;;-145.45;100.00;62759.84;5329343;27;20024;-85
2022/06/02 06:13:44;;;;;;;30.65;27.67;;;;;;;-145.45;100.00;62759.84;5330373;27;20050;-85
2022/06/02 06:16:21;;;;;;;28.17;25.30;;;;;;;-145.45;100.00;62759.84;5260742;28;20528;-85
2022/06/02 06:19:14;;;;;;;26.13;23.48;;;;;;;-145.45;100.00;62759.84;5286468;28;20159;-84
2022/06/02 06:21:55;;;;;;;23.67;21.67;;;;;;;-145.45;100.00;62759.84;5335495;27;20502;-84
2022/06/02 06:24:41;;;;;;;24.80;22.50;;;;;;;-145.45;100.00;62759.84;5334406;27;20500;-84
2022/06/02 06:27:32;;;;;;;20.65;18.33;;;;;;;-145.45;100.00;62759.84;5336687;27;20114;-84
2022/06/02 06:30:45;;;;;;;19.20;17.45;;;;;;;-145.45;100.00;62759.84;5337276;27;20020;-84
2022/06/02 06:33:39;;;;;;;17.48;15.63;;;;;;;-145.45;100.00;62759.84;5286859;27;20031;-85
2022/06/02 06:36:57;;;;;;;17.67;15.73;;;;;;;-145.45;100.00;62759.84;5317367;27;20031;-84
2022/06/02 06:39:29;;;;;;;13.65;12.35;;;;;;;-145.45;100.00;62759.84;5329463;27;20092;-84
2022/06/02 06:42:11;;;;;;;11.73;10.73;;;;;;;-145.45;100.00;62759.84;5330110;27;20027;-85
2022/06/02 06:44:58;;;;;;;10.73;9.73;;;;;;;-145.45;100.00;62759.84;5329341;27;20015;-85
2022/06/02 06:47:43;;;;;;;;;;;;;;;-145.45;100.00;62759.84;5329801;27;20110;-84
2022/06/02 06:50:35;;;;;;;13.10;11.75;;;;;;;-145.45;100.00;62759.84;5329254;27;19907;-85
2022/06/02 06:53:20;;;;;;;10.98;9.98;;;;;;;-145.45;100.00;62759.84;5348509;27;20464;-85
2022/06/02 06:56:00;;;;;;;8.27;7.57;;;;;;;-145.45;100.00;62759.84;5329399;27;20019;-84
2022/06/02 06:59:07;;;;;;;7.70;7.10;;;;;;;-145.45;100.00;62759.84;5328402;27;20118;-85
2022/06/02 07:01:57;;;;;;;6.35;5.75;;;;;;;-145.45;100.00;62759.84;5303243;27;20043;-85
2022/06/02 07:04:56;;;;;;;7.75;7.05;;;;;;;-145.45;100.00;62759.84;5328414;27;20107;-84
2022/06/02 07:07:57;;;;;;;8.07;7.47;;;;;;;-145.45;100.00;62759.84;5328824;27;20506;-84
2022/06/02 07:10:35;;;;;;;7.97;7.28;;;;;;;-145.45;100.00;62759.84;5328454;27;20109;-84
2022/06/02 07:13:26;;;;;;;7.18;6.57;;;;;;;-145.45;100.00;62759.84;5329079;27;20360;-84
2022/06/02 07:16:31;;;;;;;7.60;6.90;;;;;;;-145.45;100.00;62759.84;5328695;27;20118;-84
2022/06/02 07:19:24;;;;;;;6.63;5.95;;;;;;;-145.45;100.00;62759.84;5328748;27;20076;-84
2022/06/02 07:22:10;;;;;;;5.53;5.03;;;;;;;-145.45;100.00;62759.84;5328955;27;20114;-84
2022/06/02 07:24:55;;;;;;;5.55;5.07;;;;;;;-145.45;100.00;62759.84;5324428;28;20024;-84
2022/06/02 07:27:57;;;;;;;6.53;6.03;;;;;;;-145.45;100.00;62759.84;5324368;28;20032;-84
2022/06/02 07:30:39;;;;;;;6.63;5.90;;;;;;;-145.45;100.00;62759.84;5323945;28;20032;-84
2022/06/02 07:33:22;;;;;;;6.20;5.55;;;;;;;-145.45;100.00;62759.84;5328555;27;20019;-84
2022/06/02 07:36:18;;;;;;;6.07;5.47;;;;;;;-145.45;100.00;62759.84;5328595;27;20027;-84
2022/06/02 07:39:07;;;;;;;6.00;5.47;;;;;;;-145.45;100.00;62759.84;5328296;27;20020;-84
2022/06/02 07:42:06;;;;;;;6.53;5.55;;;;;;;-145.45;100.00;62759.84;5328057;27;20078;-84
2022/06/02 07:44:59;;;;;;;5.55;4.80;;;;;;;-145.45;100.00;62759.84;5327867;27;20022;-84
2022/06/02 07:47:42;;;;;;;5.97;5.40;;;;;;;-145.45;100.00;62759.84;5328377;27;20035;-84
2022/06/02 07:50:28;;;;;;;5.47;5.07;;;;;;;-145.45;100.00;62759.84;5328058;27;20472;-84
2022/06/02 07:53:33;;;;;;;6.20;5.13;;;;;;;-145.45;100.00;62759.84;5328047;27;20024;-83
2022/06/02 07:56:21;;;;;;;6.78;5.80;;;;;;;-145.45;100.00;62759.84;5328297;27;20468;-84
2022/06/02 07:58:58;;;;;;;7.78;6.18;;;;;;;-145.45;100.00;62759.84;5327418;27;20080;-84
2022/06/02 08:01:53;;;;;;;7.80;7.03;;;;;;;-145.45;100.00;62759.84;5328267;27;20058;-84
2022/06/02 08:04:52;;;;;;;6.25;5.43;;;;;;;-145.45;100.00;62759.84;5296263;27;20043;-85
2022/06/02 08:07:41;;;;;;;7.72;6.88;;;;;;;-145.45;100.00;62759.84;5328025;27;20024;-84
2022/06/02 08:10:18;;;;;;;6.40;5.57;;;;;;;-145.45;100.00;62759.84;5328262;27;20051;-84
2022/06/02 08:12:59;;;;;;;7.20;5.25;;;;;;;-145.45;100.00;62759.84;5327850;27;20072;-84
2022/06/02 08:16:00;;;;;;;6.68;6.13;;;;;;;-145.45;100.00;62759.84;5328434;27;20468;-84
2022/06/02 08:18:47;;;;;;;6.68;6.05;;;;;;;-145.45;100.00;62759.84;5328672;27;20015;-84
2022/06/02 08:21:33;;;;;;;7.10;6.40;;;;;;;-145.45;100.00;62759.84;5327403;27;20042;-85
2022/06/02 08:24:10;;;;;;;6.63;6.10;;;;;;;-145.45;100.00;62759.84;5346382;27;20103;-84
2022/06/02 08:27:18;;;;;;;7.03;6.32;;;;;;;-145.45;100.00;62759.84;5328187;27;20168;-84
2022/06/02 08:29:53;;;;;;;6.72;5.40;;;;;;;-145.45;100.00;62759.84;5326897;27;20019;-84
2022/06/02 08:32:45;;;;;;;69.30;9.05;;;;;;;-145.45;100.00;62759.84;5327856;27;20024;-85
2022/06/02 08:35:32;;;;;;;5.25;4.75;;;;;;;-145.45;100.00;62759.84;5327592;27;20032;-85
2022/06/02 08:38:07;;;;;;;5.72;5.20;;;;;;;-145.45;100.00;62759.84;5327171;27;20069;-85
2022/06/02 08:40:47;;;;;;;5.10;4.70;;;;;;;-145.45;100.00;62759.84;5327202;27;20444;-85
2022/06/02 08:43:49;;;;;;;5.10;4.60;;;;;;;-145.45;100.00;62759.84;5346124;27;20026;-85
2022/06/02 08:46:53;;;;;;;6.97;4.50;;;;;;;-145.45;100.00;62759.84;5327241;27;20059;-85
2022/06/02 08:50:09;;;;;;;5.47;4.80;;;;;;;-145.45;100.00;62759.84;5345181;27;20085;-85
2022/06/02 08:53:18;;;;;;;5.18;4.68;;;;;;;-145.45;100.00;62759.84;5327497;27;20027;-84
2022/06/02 08:56:27;;;;;;;4.80;4.40;;;;;;;-145.45;100.00;62759.84;5345426;27;20107;-85
2022/06/02 08:59:17;;;;;;;5.80;4.20;;;;;;;-145.45;100.00;62759.84;5326074;27;20069;-85
2022/06/02 09:02:39;;;;;;;4.63;4.25;;;;;;;-145.45;100.00;62759.84;5326732;27;20111;-85
2022/06/02 09:05:35;;;;;;;4.22;3.83;;;;;;;-145.45;100.00;62759.84;5292483;27;20072;-85
2022/06/02 09:08:43;;;;;;;3.60;3.30;;;;;;;-145.45;100.00;62759.84;5326890;27;20028;-85
2022/06/02 09:11:24;;;;;;;4.93;3.22;;;;;;;-145.45;100.00;62759.84;5326773;27;20110;-85
2022/06/02 09:14:16;;;;;;;3.53;3.22;;;;;;;-145.45;100.00;62759.84;5326998;27;20028;-85
2022/06/02 09:17:18;;;;;;;4.90;3.58;;;;;;;-145.45;100.00;62759.84;5327893;27;20047;-85
2022/06/02 09:20:12;;;;;;;3.58;3.28;;;;;;;-145.45;100.00;62759.84;5345466;27;20103;-85
2022/06/02 09:23:22;;;;;;;4.15;3.85;;;;;;;-145.45;100.00;62759.84;5345676;27;20035;-85
2022/06/02 09:26:18;;;;;;;4.10;3.60;;;;;;;-145.45;100.00;62759.84;5345473;27;20500;-86
2022/06/02 09:29:18;;;;;;;4.15;3.47;;;;;;;-145.45;100.00;62759.84;5329976;27;20020;-86
2022/06/02 09:32:12;;;;;;;4.82;4.35;;;;;;;-145.45;100.00;62759.84;5327173;28;20031;-86
2022/06/02 09:35:05;;;;;;;3.92;3.63;;;;;;;-145.45;100.00;62759.84;5309425;28;20040;-86
2022/06/02 09:37:58;;;;;;;4.03;3.65;;;;;;;-145.45;100.00;62759.84;5309597;28;20024;-86
2022/06/02 09:40:59;;;;;;;3.90;3.60;;;;;;;-145.45;100.00;62759.84;5309288;28;20107;-86
2022/06/02 09:43:34;;;;;;;3.92;3.42;;;;;;;-145.45;100.00;62759.84;5310722;28;20024;-86
2022/06/02 09:46:52;;;;;;;4.13;3.73;;;;;;;-145.45;100.00;62759.84;5310236;28;20478;-86
2022/06/02 09:49:52;;;;;;;4.20;3.90;;;;;;;-145.45;100.00;62759.84;5288887;28;20127;-86
2022/06/02 09:53:21;;;;;;;3.85;3.47;;;;;;;-145.45;100.00;62759.84;5308325;28;20039;-86
2022/06/02 09:59:56;;;;;;;3.83;3.53;;;;;;;-145.45;100.00;62759.84;5326718;28;20590;-86
2022/06/02 10:03:02;;;;;;;4.25;3.85;;;;;;;-145.45;100.00;62759.84;5309207;28;20031;-86
2022/06/02 10:06:09;;;;;;;3.80;3.50;;;;;;;-145.45;100.00;62759.84;5328236;28;20769;-86
2022/06/02 10:09:21;;;;;;;4.47;4.05;;;;;;;-145.45;100.00;62759.84;5308851;28;20498;-86
2022/06/02 10:15:34;;;;;;;3.13;2.90;;;;;;;-145.45;100.00;62759.84;5326289;28;20024;-86
2022/06/02 10:18:43;;;;;;;3.08;2.80;;;;;;;-145.45;100.00;62759.84;5308025;28;20032;-86
2022/06/02 10:25:25;;;;;;;4.20;3.80;;;;;;;-145.45;100.00;62759.84;5333746;27;20063;-85
2022/06/02 10:28:39;;;;;;;3.40;3.10;;;;;;;-145.45;100.00;62759.84;5330233;27;20481;-85
2022/06/02 10:31:50;;;;;;;4.30;4.00;;;;;;;-145.45;100.00;62759.84;5330417;27;20110;-83
2022/06/02 10:34:46;;;;;;;3.80;3.30;;;;;;;-145.45;100.00;62759.84;5329876;27;20356;-83
2022/06/02 10:37:51;;;;;;;3.22;3.03;;;;;;;-145.45;100.00;62759.84;5329735;27;20048;-84
2022/06/02 10:40:44;;;;;;;3.05;2.85;;;;;;;-145.45;100.00;62759.84;5329330;27;20028;-84
2022/06/02 10:43:32;;;;;;;3.30;3.10;;;;;;;-145.45;100.00;62759.84;5348638;27;20038;-86
2022/06/02 10:46:31;;;;;;;3.53;3.22;;;;;;;-145.45;100.00;62759.84;5329000;27;20038;-85
2022/06/02 10:49:15;;;;;;;3.95;3.65;;;;;;;-145.45;100.00;62759.84;5329262;27;20019;-85
2022/06/02 10:51:55;;;;;;;5.00;3.80;;;;;;;-145.45;100.00;62759.84;5329299;27;20024;-85
2022/06/02 10:55:07;;;;;;;4.30;3.90;;;;;;;-145.45;100.00;62759.84;5329261;27;20020;-84
2022/06/02 10:58:05;;;;;;;3.75;3.40;;;;;;;-145.45;100.00;62759.84;5259230;28;20500;-85
2022/06/02 11:01:14;;;;;;;5.43;3.58;;;;;;;-145.45;100.00;62759.84;5345691;27;20024;-85
2022/06/02 11:04:13;;;;;;;4.28;3.92;;;;;;;-145.45;100.00;62759.84;5329169;27;20047;-85
2022/06/02 11:07:03;;;;;;;4.40;4.05;;;;;;;-145.45;100.00;62759.84;5328698;27;20054;-85
2022/06/02 11:09:53;;;;;;;4.45;4.15;;;;;;;-145.45;100.00;62759.84;5328687;27;20036;-85
2022/06/02 11:12:40;;;;;;;4.72;4.32;;;;;;;-145.45;100.00;62759.84;5328982;27;20028;-84
2022/06/02 11:15:23;;;;;;;5.18;4.78;;;;;;;-145.45;100.00;62759.84;5328398;27;20073;-84
2022/06/02 11:18:21;;;;;;;5.30;4.90;;;;;;;-145.45;100.00;62759.84;5329122;27;20563;-85
2022/06/02 11:21:32;;;;;;;5.93;5.43;;;;;;;-145.45;100.00;62759.84;5328235;27;20123;-85
2022/06/02 11:24:17;;;;;;;5.18;4.78;;;;;;;-145.45;100.00;62759.84;5328499;27;20358;-85
2022/06/02 11:27:29;;;;;;;4.20;3.80;;;;;;;-145.45;100.00;62759.84;5328363;27;20533;-85
2022/06/02 11:30:06;;;;;;;4.18;3.33;;;;;;;-145.45;100.00;62759.84;5327724;27;20272;-85
2022/06/02 11:32:56;;;;;;;4.50;3.97;;;;;;;-145.45;100.00;62759.84;5328641;27;20043;-85
2022/06/02 11:35:38;;;;;;;5.05;4.55;;;;;;;-145.45;100.00;62759.84;5347242;27;20032;-85
2022/06/02 11:38:19;;;;;;;4.50;4.05;;;;;;;-145.45;100.00;62759.84;5328854;27;20039;-85
2022/06/02 11:41:02;;;;;;;5.00;4.55;;;;;;;-145.45;100.00;62759.84;5328824;27;20031;-85
2022/06/02 11:43:58;;;;;;;6.40;4.38;;;;;;;-145.45;100.00;62759.84;5327745;27;20122;-84
2022/06/02 11:47:01;;;;;;;4.35;4.05;;;;;;;-145.45;100.00;62759.84;5328628;27;20424;-85
2022/06/02 11:49:54;;;;;;;5.07;4.22;;;;;;;-145.45;100.00;62759.84;5342059;27;20034;-85
2022/06/02 11:52:29;;;;;;;4.82;4.43;;;;;;;-145.45;100.00;62759.84;5345535;27;20031;-85
2022/06/02 11:55:28;;;;;;;4.50;4.07;;;;;;;-145.45;100.00;62759.84;5345545;27;20028;-85
2022/06/02 11:58:34;;;;;;;4.00;3.60;;;;;;;-145.45;100.00;62759.84;5344878;27;20035;-85
2022/06/02 12:01:24;;;;;;;3.77;3.23;;;;;;;-145.45;100.00;62759.84;5345417;27;20031;-85
2022/06/02 12:04:50;;;;;;;3.78;3.47;;;;;;;-145.45;100.00;62759.84;5345520;27;20024;-85
2022/06/02 12:07:21;;;;;;;3.83;3.15;;;;;;;-145.45;100.00;62759.84;5301175;27;20036;-85
2022/06/02 12:10:10;;;;;;;4.00;3.03;;;;;;;-145.45;100.00;62759.84;5345705;27;20413;-85
2022/06/02 12:12:54;;;;;;;3.50;3.20;;;;;;;-145.45;100.00;62759.84;5345232;27;20074;-85
2022/06/02 12:15:39;;;;;;;3.00;2.70;;;;;;;-145.45;100.00;62759.84;5345135;27;20479;-85
2022/06/02 12:18:28;;;;;;;3.80;3.50;;;;;;;-145.45;100.00;62759.84;5345592;27;20059;-85
2022/06/02 12:21:12;;;;;;;3.85;3.55;;;;;;;-145.45;100.00;62759.84;5344915;27;20074;-85
2022/06/02 12:23:55;;;;;;;3.60;3.30;;;;;;;-145.45;100.00;62759.84;5327928;27;20103;-84
2022/06/02 12:26:45;;;;;;;4.10;3.70;;;;;;;-145.45;100.00;62759.84;5327887;27;20039;-85
2022/06/02 12:29:22;;;;;;;3.47;3.20;;;;;;;-145.45;100.00;62759.84;5327588;27;20088;-86
2022/06/02 12:32:21;;;;;;;3.00;2.80;;;;;;;-145.45;100.00;62759.84;5327844;27;20443;-85
2022/06/02 12:34:59;;;;;;;3.30;2.90;;;;;;;-145.45;100.00;62759.84;5327726;27;20036;-85
2022/06/02 12:38:01;;;;;;;3.35;2.90;;;;;;;-145.45;100.00;62759.84;5315647;28;20035;-85
2022/06/02 12:40:40;;;;;;;10.68;4.00;;;;;;;-145.45;100.00;62759.84;5306553;28;20087;-85
2022/06/02 12:43:24;;;;;;;3.25;2.70;;;;;;;-145.45;100.00;62759.84;5306268;28;20169;-86
2022/06/02 12:46:32;;;;;;;3.80;3.15;;;;;;;-145.45;100.00;62759.84;5322935;28;20024;-85
2022/06/02 12:49:41;;;;;;;3.60;3.30;;;;;;;-145.45;100.00;62759.84;5323621;28;20447;-85
2022/06/02 12:52:36;;;;;;;3.50;3.30;;;;;;;-145.45;100.00;62759.84;5322802;28;20445;-85
2022/06/02 12:55:35;;;;;;;3.30;3.00;;;;;;;-145.45;100.00;62759.84;5306771;28;20495;-85
2022/06/02 12:58:41;;;;;;;3.22;2.97;;;;;;;-145.45;100.00;62759.84;5309550;28;20028;-85
2022/06/02 13:01:37;;;;;;;3.80;3.50;;;;;;;-145.45;100.00;62759.84;5314511;28;20040;-85
2022/06/02 13:04:34;;;;;;;3.72;3.28;;;;;;;-145.45;100.00;62759.84;5323472;28;20067;-84
2022/06/02 13:07:08;;;;;;;3.80;3.50;;;;;;;-145.45;100.00;62759.84;5332343;28;20065;-85